Time;durP1;ratioP1;P1;durP2;ratioP2;P2;SDS_P1;SDS_P2;PMS_P1;PMS_P2;Temp;Humidity;BMP_temperature;BMP_pressure;BME280_temperature;BME280_humidity;BME280_pressure;Samples;Min_cycle;Max_cycle;Signal;HPM_P1;HPM_P2
2023/09/23 00:02:57;;;;;;;4.77;3.23;;;;;;;16.34;100.00;99960.21;5099589;56;1139190;-74
2023/09/23 00:08:03;;;;;;;3.20;3.00;;;;;;;16.36;100.00;99966.69;5119752;56;1138971;-73
2023/09/23 00:13:08;;;;;;;3.53;3.07;;;;;;;16.36;100.00;99970.69;5099442;56;1138528;-73
2023/09/23 00:18:17;;;;;;;4.67;3.53;;;;;;;16.32;100.00;99955.54;5098279;56;1138715;-73
2023/09/23 00:23:21;;;;;;;10.13;3.67;;;;;;;16.34;100.00;99958.88;5146701;55;1138886;-73
2023/09/23 00:28:28;;;;;;;4.17;3.60;;;;;;;16.33;100.00;99965.22;5198444;55;1140655;-73
2023/09/23 00:33:37;;;;;;;4.00;3.70;;;;;;;16.29;100.00;99929.19;5099640;56;1138767;-74
2023/09/23 00:38:42;;;;;;;5.50;3.67;;;;;;;16.23;100.00;99930.36;5099518;56;1138836;-73
2023/09/23 00:43:47;;;;;;;4.53;4.12;;;;;;;16.21;100.00;99928.35;5119076;56;1138749;-74
2023/09/23 00:48:53;;;;;;;5.17;4.05;;;;;;;16.22;100.00;99928.19;5136531;55;1138760;-74
2023/09/23 00:54:01;;;;;;;5.57;5.10;;;;;;;16.22;100.00;99926.85;5063333;56;1138872;-73
2023/09/23 00:59:06;;;;;;;5.13;4.67;;;;;;;16.26;100.00;99928.19;5101790;56;1138980;-73
2023/09/23 01:04:13;;;;;;;5.67;5.03;;;;;;;16.29;100.00;99923.85;5109968;56;1138789;-74
2023/09/23 01:09:20;;;;;;;6.30;5.43;;;;;;;16.34;100.00;99922.84;4946770;57;1138463;-73
2023/09/23 01:14:27;;;;;;;6.27;5.67;;;;;;;16.45;100.00;99913.14;5041549;57;1138883;-73
2023/09/23 01:19:34;;;;;;;6.23;5.40;;;;;;;16.58;100.00;99919.77;5064959;56;1138430;-74
2023/09/23 01:24:40;;;;;;;11.13;5.23;;;;;;;16.72;100.00;99919.08;5042460;56;1138853;-74
2023/09/23 01:29:52;;;;;;;7.42;6.40;;;;;;;16.76;100.00;99941.27;5034868;57;1140854;-73
2023/09/23 01:34:53;;;;;;;5.33;4.83;;;;;;;16.37;100.00;99964.34;5179044;55;1138766;-74
2023/09/23 01:39:59;;;;;;;6.87;6.03;;;;;;;16.16;100.00;99975.57;5170719;55;1138773;-73
2023/09/23 01:45:06;;;;;;;7.70;6.93;;;;;;;16.01;100.00;99966.08;5184095;55;1138736;-73
2023/09/23 01:50:18;;;;;;;9.40;7.70;;;;;;;15.96;100.00;99965.73;5071355;56;1138756;-74
2023/09/23 01:55:20;;;;;;;13.83;8.80;;;;;;;15.99;100.00;99965.91;5008907;56;1138413;-74
2023/09/23 02:00:29;;;;;;;10.43;8.20;;;;;;;15.98;100.00;99958.41;4991806;57;1141032;-74
2023/09/23 02:05:34;;;;;;;10.70;8.33;;;;;;;16.02;100.00;99958.41;4977710;57;1141055;-73
2023/09/23 02:10:52;;;;;;;25.53;16.13;;;;;;;16.16;100.00;99964.90;4926687;57;1140986;-74
2023/09/23 02:15:55;;;;;;;8.90;8.10;;;;;;;16.28;100.00;99938.70;4953039;57;1142967;-74
2023/09/23 02:20:59;;;;;;;11.10;9.83;;;;;;;16.43;100.00;99923.14;5011952;57;1138832;-74
2023/09/23 02:26:06;;;;;;;9.83;8.83;;;;;;;16.57;100.00;99926.94;5076453;56;1140901;-73
2023/09/23 02:31:12;;;;;;;10.00;9.00;;;;;;;16.46;100.00;99917.97;5003957;57;1138818;-73
2023/09/23 02:36:18;;;;;;;9.00;8.10;;;;;;;16.27;100.00;99937.86;5078621;56;1140822;-74
2023/09/23 02:41:24;;;;;;;12.63;8.73;;;;;;;16.21;100.00;99968.38;5097571;56;1138855;-74
2023/09/23 02:46:29;;;;;;;12.37;10.40;;;;;;;16.16;100.00;99950.23;5078375;55;1141036;-73
2023/09/23 02:51:36;;;;;;;12.97;9.87;;;;;;;16.16;100.00;99975.07;5077944;56;1142727;-73
2023/09/23 02:56:42;;;;;;;11.13;9.50;;;;;;;16.17;100.00;99982.08;5098962;57;1151253;-74
2023/09/23 03:01:53;;;;;;;10.23;9.23;;;;;;;16.19;100.00;99952.03;5071464;56;1140767;-74
2023/09/23 03:07:01;;;;;;;11.50;9.30;;;;;;;16.24;100.00;99932.86;5078204;56;1140958;-73
2023/09/23 03:12:05;;;;;;;13.70;9.87;;;;;;;16.30;100.00;99954.04;5137521;55;1140811;-73
2023/09/23 03:17:21;;;;;;;12.80;9.77;;;;;;;16.35;100.00;99941.00;5079174;56;1140772;-73
2023/09/23 03:22:23;;;;;;;9.53;8.63;;;;;;;16.38;100.00;99958.84;5059466;56;1141229;-74
2023/09/23 03:27:29;;;;;;;9.87;8.00;;;;;;;16.31;100.00;99967.22;4915255;57;1138884;-74
2023/09/23 03:32:34;;;;;;;9.40;7.27;;;;;;;16.22;100.00;99978.88;4931508;57;1138794;-73
2023/09/23 03:37:40;;;;;;;7.63;6.07;;;;;;;16.14;100.00;99984.23;4915819;58;1138655;-73
2023/09/23 03:42:48;;;;;;;7.02;6.22;;;;;;;15.96;100.00;99987.57;4997732;56;1138712;-73
2023/09/23 03:47:54;;;;;;;6.15;5.55;;;;;;;15.82;100.00;100008.57;4940225;58;1138669;-74
2023/09/23 03:52:59;;;;;;;9.10;6.28;;;;;;;15.69;100.00;100010.89;4915947;57;1140835;-73
2023/09/23 03:58:05;;;;;;;6.42;5.80;;;;;;;15.57;100.00;100020.70;5006656;57;1140671;-73
2023/09/23 04:03:13;;;;;;;8.57;6.93;;;;;;;15.55;100.00;100035.98;5099101;56;1140807;-73
2023/09/23 04:08:19;;;;;;;10.73;7.23;;;;;;;15.71;100.00;100034.72;4994532;57;1141095;-73
2023/09/23 04:13:25;;;;;;;10.80;8.00;;;;;;;15.78;100.00;100041.89;5052909;56;1143014;-73
2023/09/23 04:18:31;;;;;;;10.03;7.97;;;;;;;15.78;100.00;100043.22;4937961;58;1142958;-73
2023/09/23 04:23:39;;;;;;;9.87;8.47;;;;;;;15.78;100.00;100052.55;4911272;58;1143042;-73
2023/09/23 04:28:45;;;;;;;8.70;7.67;;;;;;;15.63;100.00;100040.86;4996151;57;1141104;-73
2023/09/23 04:33:51;;;;;;;8.20;7.40;;;;;;;15.57;100.00;100048.69;5014516;57;1140967;-73
2023/09/23 04:38:57;;;;;;;10.28;7.75;;;;;;;15.49;100.00;100051.62;5006562;57;1140837;-74
2023/09/23 04:44:02;;;;;;;7.93;6.00;;;;;;;15.58;100.00;100075.68;5005829;56;1142950;-73
2023/09/23 04:49:09;;;;;;;8.17;6.07;;;;;;;15.55;100.00;100072.84;5015712;57;1141121;-73
2023/09/23 04:54:15;;;;;;;7.57;6.13;;;;;;;15.57;100.00;100078.01;5079049;56;1140872;-74
2023/09/23 04:59:21;;;;;;;9.55;5.85;;;;;;;15.51;100.00;100114.09;5066476;56;1141049;-73
2023/09/23 05:04:26;;;;;;;6.22;5.46;;;;;;;15.35;100.00;100094.87;5097689;56;1141022;-73
2023/09/23 05:09:32;;;;;;;6.67;5.93;;;;;;;15.29;100.00;100096.83;4959848;57;1140697;-73
2023/09/23 05:14:39;;;;;;;6.13;5.53;;;;;;;15.29;100.00;100094.66;4953465;57;1140784;-74
2023/09/23 05:19:47;;;;;;;169.83;108.53;;;;;;;15.32;100.00;100100.52;4977840;57;1140778;-73
2023/09/23 05:24:57;;;;;;;33.83;23.40;;;;;;;15.44;100.00;100097.06;4960498;57;1149260;-73
2023/09/23 05:30:00;;;;;;;7.33;6.47;;;;;;;15.53;100.00;100115.27;4928198;58;1145007;-73
2023/09/23 05:35:10;;;;;;;7.03;4.73;;;;;;;15.49;100.00;100106.75;5099278;56;1140670;-74
2023/09/23 05:45:27;;;;;;;7.23;6.00;;;;;;;15.46;100.00;100109.23;4965970;56;1140876;-75
2023/09/23 05:50:34;;;;;;;6.30;4.33;;;;;;;15.36;100.00;100111.70;4910887;58;1141062;-74
2023/09/23 05:55:39;;;;;;;8.47;4.50;;;;;;;15.25;100.00;100124.81;4828674;57;1140791;-74
2023/09/23 06:00:45;;;;;;;4.73;4.30;;;;;;;15.09;100.00;100128.22;4867838;58;1141157;-75
2023/09/23 06:05:51;;;;;;;5.30;4.60;;;;;;;14.93;100.00;100129.94;4970463;56;1140870;-74
2023/09/23 06:11:05;;;;;;;4.50;4.10;;;;;;;14.87;100.00;100134.55;4951194;57;1141065;-74
2023/09/23 06:16:11;;;;;;;4.67;4.23;;;;;;;14.90;100.00;100145.73;4966328;56;1140731;-73
2023/09/23 06:21:17;;;;;;;6.50;4.33;;;;;;;14.92;100.00;100149.08;4987289;57;1141374;-72
2023/09/23 06:26:23;;;;;;;6.37;4.60;;;;;;;15.06;100.00;100146.33;5005299;56;1140984;-73
2023/09/23 06:31:28;;;;;;;6.80;4.17;;;;;;;15.29;100.00;100149.28;4987915;56;1140826;-73
2023/09/23 06:36:34;;;;;;;4.63;4.20;;;;;;;15.43;100.00;100154.86;4950423;56;1140970;-73
2023/09/23 06:41:40;;;;;;;4.70;3.93;;;;;;;15.61;100.00;100158.80;5045392;56;1141053;-74
2023/09/23 06:46:46;;;;;;;7.33;4.43;;;;;;;15.79;100.00;100167.55;5009825;55;1140912;-74
2023/09/23 06:51:51;;;;;;;6.60;4.27;;;;;;;15.89;100.00;100174.08;5033912;57;1141036;-73
2023/09/23 06:56:57;;;;;;;5.50;4.00;;;;;;;15.96;100.00;100168.45;5085716;56;1140874;-72
2023/09/23 07:02:03;;;;;;;9.53;4.25;;;;;;;15.90;100.00;100175.75;5019789;57;1141159;-73
2023/09/23 07:07:08;;;;;;;7.73;4.57;;;;;;;15.87;100.00;100172.59;5015438;57;1140809;-72
2023/09/23 07:12:15;;;;;;;12.93;5.40;;;;;;;15.95;100.00;100183.27;5104211;56;1141095;-73
2023/09/23 07:17:20;;;;;;;11.53;4.17;;;;;;;16.05;100.00;100190.63;5111894;56;1143005;-72
2023/09/23 07:22:26;;;;;;;6.10;4.07;;;;;;;16.08;100.00;100216.98;4895388;57;1142988;-72
2023/09/23 07:27:32;;;;;;;4.97;4.13;;;;;;;16.08;100.00;100214.33;5011220;56;1140948;-72
2023/09/23 07:32:37;;;;;;;5.87;4.33;;;;;;;16.18;100.00;100225.72;4957041;56;1140836;-73
2023/09/23 07:37:43;;;;;;;10.10;4.33;;;;;;;16.24;100.00;100241.56;5015166;57;1140976;-72
2023/09/23 07:42:48;;;;;;;9.57;5.60;;;;;;;16.34;100.00;100249.78;5024009;56;1143006;-74
2023/09/23 07:47:54;;;;;;;4.20;3.77;;;;;;;16.43;100.00;100267.48;4980314;57;1140773;-73
2023/09/23 07:52:59;;;;;;;4.42;3.95;;;;;;;16.65;100.00;100278.05;5080186;56;1140739;-72
2023/09/23 07:58:05;;;;;;;5.40;4.70;;;;;;;16.71;100.00;100256.55;5051708;55;1140815;-74
2023/09/23 08:03:11;;;;;;;6.43;3.80;;;;;;;16.66;100.00;100238.34;5013133;57;1140705;-72
2023/09/23 08:08:17;;;;;;;5.17;3.50;;;;;;;16.64;100.00;100244.88;5068930;56;1140913;-73
2023/09/23 08:13:27;;;;;;;5.50;3.40;;;;;;;16.62;100.00;100259.69;4991190;57;1140917;-74
2023/09/23 08:18:30;;;;;;;2.67;2.47;;;;;;;16.66;100.00;100254.36;5009423;57;1140823;-73
2023/09/23 08:23:36;;;;;;;3.67;3.40;;;;;;;16.75;100.00;100262.73;4968598;57;1140765;-72
2023/09/23 08:28:42;;;;;;;4.70;2.93;;;;;;;16.86;100.00;100273.09;5048183;56;1140773;-72
2023/09/23 08:33:48;;;;;;;3.40;3.10;;;;;;;16.97;100.00;100271.92;5031168;56;1141140;-75
2023/09/23 08:38:57;;;;;;;3.00;2.70;;;;;;;17.00;100.00;100293.47;4952642;56;1140923;-73
2023/09/23 08:44:06;;;;;;;4.05;2.60;;;;;;;17.10;100.00;100296.84;4962352;57;1140829;-73
2023/09/23 08:49:12;;;;;;;8.27;3.50;;;;;;;17.17;100.00;100305.84;4977221;57;1140812;-72
2023/09/23 08:54:27;;;;;;;3.40;2.93;;;;;;;17.31;100.00;100304.34;4978793;56;1140917;-73
2023/09/23 08:59:27;;;;;;;8.75;2.98;;;;;;;17.36;100.00;100311.36;4994686;57;1140911;-74
2023/09/23 09:04:34;;;;;;;9.37;2.57;;;;;;;17.41;100.00;100313.88;4993490;57;1141047;-73
2023/09/23 09:09:39;;;;;;;6.80;3.22;;;;;;;17.56;100.00;100327.41;5076329;56;1140788;-73
2023/09/23 09:14:53;;;;;;;3.70;3.13;;;;;;;17.57;100.00;100316.52;4999174;56;1140957;-73
2023/09/23 09:19:59;;;;;;;3.98;3.08;;;;;;;17.46;100.00;100342.27;5107564;56;1140890;-73
2023/09/23 09:25:05;;;;;;;3.45;3.15;;;;;;;17.34;100.00;100336.09;5029948;56;1140909;-73
2023/09/23 09:30:11;;;;;;;5.07;3.77;;;;;;;17.23;100.00;100339.94;5022535;56;1140905;-73
2023/09/23 09:35:18;;;;;;;5.53;3.73;;;;;;;17.14;100.00;100343.08;5013477;57;1141110;-74
2023/09/23 09:40:28;;;;;;;3.83;3.17;;;;;;;17.06;100.00;100336.41;5040518;57;1140970;-72
2023/09/23 09:45:40;;;;;;;5.83;3.37;;;;;;;17.02;100.00;100346.25;5019861;56;1140797;-74
2023/09/23 09:50:50;;;;;;;3.35;3.12;;;;;;;17.05;100.00;100355.27;5054517;56;1140912;-76
2023/09/23 09:55:56;;;;;;;3.52;3.22;;;;;;;17.15;100.00;100354.11;5038985;56;1140851;-73
2023/09/23 10:01:04;;;;;;;4.83;2.83;;;;;;;17.22;100.00;100352.47;5015741;56;1141053;-73
2023/09/23 10:06:10;;;;;;;2.60;2.40;;;;;;;17.31;100.00;100355.97;5006157;57;1140989;-74
2023/09/23 10:11:16;;;;;;;7.63;3.47;;;;;;;17.47;100.00;100359.14;4998127;56;1148600;-75
2023/09/23 10:16:27;;;;;;;4.67;1.77;;;;;;;17.56;100.00;100350.97;5084264;56;1140912;-73
2023/09/23 10:21:35;;;;;;;3.07;1.30;;;;;;;17.57;100.00;100357.12;5019088;56;1141281;-73
2023/09/23 10:26:43;;;;;;;4.27;1.73;;;;;;;17.52;100.00;100361.66;5068655;56;1141099;-74
2023/09/23 10:31:49;;;;;;;4.17;2.30;;;;;;;17.51;100.00;100368.02;5009472;56;1140850;-75
2023/09/23 10:36:55;;;;;;;1.62;1.30;;;;;;;17.62;100.00;100366.83;5059944;55;1140901;-73
2023/09/23 10:42:01;;;;;;;4.20;1.40;;;;;;;17.70;100.00;100364.70;5066893;56;1140655;-75
2023/09/23 10:47:07;;;;;;;2.20;1.72;;;;;;;17.69;100.00;100369.20;5044905;56;1141020;-75
2023/09/23 10:52:13;;;;;;;2.40;1.80;;;;;;;17.59;100.00;100368.00;5018810;56;1141139;-74
2023/09/23 10:57:18;;;;;;;1.53;1.40;;;;;;;17.67;100.00;100369.88;5025980;57;1141024;-75
2023/09/23 11:02:25;;;;;;;3.23;1.30;;;;;;;17.76;100.00;100366.17;5012594;57;1141234;-74
2023/09/23 11:07:30;;;;;;;2.15;1.55;;;;;;;17.88;100.00;100366.66;4985376;57;1140823;-75
2023/09/23 11:12:36;;;;;;;4.12;1.30;;;;;;;17.90;100.00;100371.34;5016025;56;1140841;-74
2023/09/23 11:17:43;;;;;;;5.40;1.03;;;;;;;17.92;100.00;100360.80;4957809;57;1141102;-74
2023/09/23 11:22:50;;;;;;;1.20;1.10;;;;;;;17.96;100.00;100368.50;5074320;56;1141101;-74
2023/09/23 11:28:00;;;;;;;1.52;1.20;;;;;;;17.98;100.00;100372.68;4965035;56;1140959;-74
2023/09/23 11:33:06;;;;;;;3.65;1.07;;;;;;;18.02;100.00;100379.87;4940138;58;1140972;-73
2023/09/23 11:38:16;;;;;;;1.05;0.90;;;;;;;18.04;100.00;100385.36;5044504;57;1140721;-73
2023/09/23 11:43:22;;;;;;;1.57;1.40;;;;;;;18.14;100.00;100389.20;4948939;57;1140943;-74
2023/09/23 11:48:28;;;;;;;2.97;1.50;;;;;;;18.34;100.00;100419.08;5019239;56;1140749;-74
2023/09/23 11:53:35;;;;;;;4.80;1.72;;;;;;;18.34;100.00;100419.08;5036587;56;1140873;-75
2023/09/23 11:58:41;;;;;;;0.80;0.80;;;;;;;18.37;100.00;100410.22;5051242;56;1140861;-76
2023/09/23 12:03:47;;;;;;;4.40;1.87;;;;;;;18.54;100.00;100393.08;4990632;56;1140837;-73
2023/09/23 12:08:52;;;;;;;2.40;1.27;;;;;;;18.81;100.00;100415.09;5045591;56;1140896;-73
2023/09/23 12:14:00;;;;;;;1.20;1.00;;;;;;;18.88;100.00;100416.08;5021380;57;1140918;-72
2023/09/23 12:19:06;;;;;;;7.78;1.47;;;;;;;18.89;100.00;100408.38;5068219;56;1140774;-72
2023/09/23 12:24:12;;;;;;;0.53;0.53;;;;;;;18.84;100.00;100418.77;5119115;56;1140786;-73
2023/09/23 12:29:17;;;;;;;2.08;0.93;;;;;;;18.61;100.00;100416.87;5030084;56;1261193;-72
2023/09/23 12:34:23;;;;;;;2.62;0.60;;;;;;;18.50;100.00;100424.39;5121856;56;1140873;-73
2023/09/23 12:39:28;;;;;;;1.87;0.97;;;;;;;18.29;100.00;100422.30;5042001;56;1140902;-73
2023/09/23 12:44:34;;;;;;;3.42;0.88;;;;;;;18.17;100.00;100434.38;5082127;56;1141034;-74
2023/09/23 12:49:40;;;;;;;1.22;0.78;;;;;;;18.16;100.00;100447.42;5023937;57;1141056;-74
2023/09/23 12:54:46;;;;;;;1.75;0.72;;;;;;;18.21;100.00;100451.75;5024223;56;1140922;-73
2023/09/23 12:59:52;;;;;;;4.55;0.60;;;;;;;18.20;100.00;100462.95;5048281;56;1140958;-75
2023/09/23 13:04:58;;;;;;;2.12;1.00;;;;;;;18.29;100.00;100467.81;5021237;57;1140751;-74
2023/09/23 13:10:05;;;;;;;1.10;0.60;;;;;;;18.34;100.00;100473.47;5021272;57;1141045;-73
2023/09/23 13:15:11;;;;;;;0.53;0.53;;;;;;;18.43;100.00;100478.33;5040811;57;1140860;-73
2023/09/23 13:20:17;;;;;;;0.82;0.57;;;;;;;18.46;100.00;100480.17;5020827;57;1141178;-73
2023/09/23 13:25:25;;;;;;;0.80;0.80;;;;;;;18.39;100.00;100485.02;5021197;57;1141051;-73
2023/09/23 13:30:29;;;;;;;1.37;1.07;;;;;;;18.33;100.00;100487.06;5054075;56;1141105;-73
2023/09/23 13:35:36;;;;;;;4.75;1.80;;;;;;;18.27;100.00;100504.13;5069364;56;1140919;-74
2023/09/23 13:40:42;;;;;;;2.20;1.65;;;;;;;18.13;100.00;100502.63;5011401;57;1140736;-73
2023/09/23 13:45:47;;;;;;;0.50;0.50;;;;;;;18.01;100.00;100493.27;5049841;57;1140747;-73
2023/09/23 13:50:53;;;;;;;3.10;0.50;;;;;;;17.95;100.00;100514.84;5020916;56;1141101;-75
2023/09/23 13:55:59;;;;;;;4.47;0.82;;;;;;;17.91;100.00;100525.53;5000849;57;1140727;-74
2023/09/23 14:01:04;;;;;;;1.65;0.40;;;;;;;17.92;100.00;100529.88;5071400;56;1140923;-74
2023/09/23 14:06:10;;;;;;;1.15;0.68;;;;;;;17.91;100.00;100525.03;5074565;56;1140700;-75
2023/09/23 14:11:16;;;;;;;1.04;0.62;;;;;;;17.80;100.00;100521.84;5013640;57;1141066;-75
2023/09/23 14:16:21;;;;;;;2.70;0.70;;;;;;;17.69;100.00;100518.16;4959577;57;1140749;-73
2023/09/23 14:21:27;;;;;;;1.57;0.60;;;;;;;17.64;100.00;100528.51;4959230;58;1141253;-73
2023/09/23 14:26:32;;;;;;;4.15;1.00;;;;;;;17.68;100.00;100529.86;4917814;58;1140944;-73
2023/09/23 14:31:38;;;;;;;2.37;0.62;;;;;;;17.71;100.00;100546.42;4908860;58;1140805;-73
2023/09/23 14:36:44;;;;;;;0.55;0.55;;;;;;;17.71;100.00;100553.11;4976263;57;1140933;-73
2023/09/23 14:41:49;;;;;;;0.50;0.50;;;;;;;17.69;100.00;100567.15;4956794;57;1141186;-74
2023/09/23 14:46:55;;;;;;;0.45;0.45;;;;;;;17.63;100.00;100574.94;4989404;57;1140935;-73
2023/09/23 14:52:01;;;;;;;2.65;0.82;;;;;;;17.54;100.00;100578.95;4962677;57;1140866;-73
2023/09/23 14:57:06;;;;;;;2.83;0.80;;;;;;;17.45;100.00;100571.04;4991407;56;1140633;-73
2023/09/23 15:02:12;;;;;;;5.87;3.97;;;;;;;17.37;100.00;100574.54;4998920;56;1140970;-73
2023/09/23 15:07:17;;;;;;;5.95;4.40;;;;;;;17.30;100.00;100579.34;5012160;57;1140927;-74
2023/09/23 15:12:24;;;;;;;6.00;4.10;;;;;;;17.25;100.00;100593.70;5025712;57;1140988;-73
2023/09/23 15:17:29;;;;;;;5.60;2.80;;;;;;;17.23;100.00;100606.73;5094833;56;1140914;-73
2023/09/23 15:22:35;;;;;;;1.80;1.70;;;;;;;17.13;100.00;100593.13;5024124;56;1141089;-73
2023/09/23 15:27:40;;;;;;;2.03;1.47;;;;;;;17.16;100.00;100611.52;5017057;57;1140936;-73
2023/09/23 15:32:46;;;;;;;0.90;0.90;;;;;;;17.13;100.00;100626.53;4939104;56;1140912;-74
2023/09/23 15:37:52;;;;;;;1.70;0.70;;;;;;;17.10;100.00;100626.38;5022714;56;1140809;-73
2023/09/23 15:42:58;;;;;;;0.90;0.50;;;;;;;17.06;100.00;100626.34;5019422;57;1140848;-73
2023/09/23 15:48:04;;;;;;;0.82;0.82;;;;;;;17.05;100.00;100635.36;5073268;56;1140980;-74
2023/09/23 15:53:09;;;;;;;0.97;0.90;;;;;;;17.05;100.00;100642.53;5014631;56;1140952;-71
2023/09/23 15:58:15;;;;;;;5.20;1.00;;;;;;;17.06;100.00;100650.89;5008091;57;1141004;-71
2023/09/23 16:03:21;;;;;;;1.00;0.67;;;;;;;17.05;100.00;100656.73;4993421;57;1141138;-71
2023/09/23 16:08:27;;;;;;;2.30;2.10;;;;;;;17.01;100.00;100674.56;5039562;57;1140733;-69
2023/09/23 16:13:32;;;;;;;3.07;2.23;;;;;;;16.98;100.00;100678.88;5030384;57;1140883;-69
2023/09/23 16:18:38;;;;;;;1.50;1.30;;;;;;;16.93;100.00;100690.55;5000312;57;1141002;-69
2023/09/23 16:23:44;;;;;;;2.47;1.53;;;;;;;16.87;100.00;100692.00;4996436;56;1140988;-69
2023/09/23 16:28:50;;;;;;;2.10;1.60;;;;;;;16.86;100.00;100694.33;5024612;56;1140795;-68
2023/09/23 16:33:56;;;;;;;3.70;2.37;;;;;;;16.85;100.00;100713.52;4978176;56;1141009;-71
2023/09/23 16:39:06;;;;;;;3.12;2.15;;;;;;;16.76;100.00;100718.97;5012854;57;1140903;-71
2023/09/23 16:44:11;;;;;;;3.58;2.12;;;;;;;16.67;100.00;100725.20;5057218;56;1140846;-72
2023/09/23 16:49:18;;;;;;;3.27;2.53;;;;;;;16.62;100.00;100727.48;5020414;56;1141094;-68
2023/09/23 16:54:24;;;;;;;4.60;3.12;;;;;;;16.56;100.00;100732.09;5014907;56;1140940;-71
2023/09/23 16:59:29;;;;;;;3.83;3.43;;;;;;;16.54;100.00;100743.76;5053834;56;1140842;-69
2023/09/23 17:04:35;;;;;;;10.40;4.40;;;;;;;16.53;100.00;100750.09;5033459;56;1140681;-72
2023/09/23 17:09:41;;;;;;;10.33;5.40;;;;;;;16.54;100.00;100741.09;4947358;56;1142658;-69
2023/09/23 17:14:47;;;;;;;37.63;24.17;;;;;;;16.43;100.00;100753.83;4976512;57;1142589;-71
2023/09/23 17:19:53;;;;;;;57.30;37.03;;;;;;;16.30;100.00;100762.20;4912584;58;1145044;-71
2023/09/23 17:25:00;;;;;;;13.57;8.30;;;;;;;16.18;100.00;100772.75;4856024;59;1145389;-69
2023/09/23 17:30:07;;;;;;;4.70;2.62;;;;;;;16.09;100.00;100776.28;4926112;58;1143103;-76
2023/09/23 17:35:12;;;;;;;22.48;15.12;;;;;;;15.96;100.00;100787.30;4928121;58;1140851;-72
2023/09/23 17:40:18;;;;;;;1.60;1.50;;;;;;;15.86;100.00;100799.01;4913753;57;1144994;-73
2023/09/23 17:45:24;;;;;;;3.40;3.15;;;;;;;15.76;100.00;100797.69;4849488;58;1140983;-76
2023/09/23 17:50:29;;;;;;;5.93;5.40;;;;;;;15.68;100.00;100798.92;4950515;58;1140969;-75
2023/09/23 17:55:35;;;;;;;5.37;2.93;;;;;;;15.58;100.00;100800.78;4906000;58;1140950;-74
2023/09/23 18:00:41;;;;;;;12.20;10.67;;;;;;;15.49;100.00;100811.28;4845879;58;1140940;-77
2023/09/23 18:05:47;;;;;;;8.07;5.67;;;;;;;15.43;100.00;100813.66;4943213;57;1145088;-76
2023/09/23 18:10:54;;;;;;;12.10;5.30;;;;;;;15.44;100.00;100822.02;4993877;56;1140908;-74
2023/09/23 18:15:59;;;;;;;5.17;4.17;;;;;;;15.47;100.00;100813.73;4987630;57;1142888;-73
2023/09/23 18:21:05;;;;;;;36.70;19.70;;;;;;;15.60;100.00;100827.63;4995324;57;1140998;-73
2023/09/23 18:26:14;;;;;;;23.80;13.80;;;;;;;15.77;100.00;100828.22;4932051;57;1145476;-71
2023/09/23 18:31:20;;;;;;;106.27;69.30;;;;;;;15.89;100.00;100830.73;4952650;57;1145173;-72
2023/09/23 18:36:26;;;;;;;148.87;98.05;;;;;;;15.89;100.00;100838.20;4946172;57;1147450;-73
2023/09/23 18:41:31;;;;;;;23.30;12.70;;;;;;;15.82;100.00;100838.45;4998064;57;1146962;-72
2023/09/23 18:46:37;;;;;;;12.13;6.40;;;;;;;15.76;100.00;100855.02;4935706;57;1144817;-77
2023/09/23 18:51:43;;;;;;;8.68;4.80;;;;;;;15.76;100.00;100863.87;4910849;58;1142791;-73
2023/09/23 18:56:48;;;;;;;5.90;4.30;;;;;;;15.68;100.00;100867.76;4958505;58;1140805;-73
2023/09/23 19:01:55;;;;;;;6.33;4.27;;;;;;;15.56;100.00;100873.40;4974405;56;1140792;-82
2023/09/23 19:07:01;;;;;;;21.37;9.93;;;;;;;15.51;100.00;100889.78;4985159;57;1140976;-78
2023/09/23 19:12:07;;;;;;;31.42;16.10;;;;;;;15.30;100.00;100893.91;4983067;57;1143018;-70
2023/09/23 19:17:13;;;;;;;22.40;13.68;;;;;;;15.16;100.00;100890.34;5003039;56;1145107;-74
2023/09/23 19:22:19;;;;;;;13.13;7.43;;;;;;;15.08;100.00;100908.85;4994911;57;1144803;-74
2023/09/23 19:27:24;;;;;;;10.50;6.47;;;;;;;14.97;100.00;100908.46;5079436;56;1143206;-73
2023/09/23 19:32:30;;;;;;;7.40;5.47;;;;;;;14.92;100.00;100913.38;5006529;56;1142962;-77
2023/09/23 19:37:37;;;;;;;10.83;5.50;;;;;;;14.78;100.00;100909.30;4974924;57;1141068;-75
2023/09/23 19:42:43;;;;;;;7.43;5.13;;;;;;;14.61;100.00;100917.92;5078697;56;1142982;-79
2023/09/23 19:47:49;;;;;;;8.83;5.87;;;;;;;14.51;100.00;100929.52;5097079;56;1140886;-73
2023/09/23 19:52:59;;;;;;;7.73;5.47;;;;;;;14.39;100.00;100931.38;4967850;58;1140727;-77
2023/09/23 19:58:06;;;;;;;6.43;3.87;;;;;;;14.30;100.00;100936.19;4995390;56;1141046;-74
2023/09/23 20:03:13;;;;;;;5.58;3.70;;;;;;;14.26;100.00;100936.08;4989609;57;1140742;-76
2023/09/23 20:08:20;;;;;;;6.42;3.90;;;;;;;14.22;100.00;100943.97;5078827;56;1140745;-75
2023/09/23 20:13:26;;;;;;;6.22;4.03;;;;;;;14.16;100.00;100943.18;5082218;56;1140909;-73
2023/09/23 20:18:31;;;;;;;4.53;3.33;;;;;;;14.08;100.00;100957.97;5098248;56;1140919;-75
2023/09/23 20:23:37;;;;;;;3.87;2.87;;;;;;;14.07;100.00;100951.44;5079409;56;1140787;-74
2023/09/23 20:28:43;;;;;;;10.77;3.53;;;;;;;14.13;100.00;100956.25;5078887;56;1140742;-76
2023/09/23 20:33:48;;;;;;;5.57;3.90;;;;;;;14.15;100.00;100960.11;5098642;56;1143170;-75
2023/09/23 20:38:55;;;;;;;7.13;3.70;;;;;;;14.13;100.00;100962.06;5078858;56;1140815;-73
2023/09/23 20:44:03;;;;;;;7.05;3.62;;;;;;;14.12;100.00;100970.52;5085065;56;1142025;-74
2023/09/23 20:49:08;;;;;;;3.90;2.75;;;;;;;14.15;100.00;100972.93;5025573;56;1141057;-76
2023/09/23 20:54:14;;;;;;;7.97;3.37;;;;;;;14.24;100.00;100968.63;5034903;56;1140736;-76
2023/09/23 20:59:20;;;;;;;4.25;3.00;;;;;;;14.29;100.00;100971.75;4928732;57;1140809;-75
2023/09/23 21:04:25;;;;;;;5.00;2.90;;;;;;;14.31;100.00;100981.29;4946816;57;1140875;-73
2023/09/23 21:09:31;;;;;;;5.33;3.57;;;;;;;14.31;100.00;100978.63;5015482;57;1140802;-70
2023/09/23 21:14:36;;;;;;;7.40;3.40;;;;;;;14.32;100.00;100982.13;4995938;56;1141006;-79
2023/09/23 21:19:43;;;;;;;6.87;3.37;;;;;;;14.29;100.00;100979.23;4995730;56;1141093;-75
2023/09/23 21:24:48;;;;;;;5.17;3.03;;;;;;;14.28;100.00;100979.37;5097692;56;1140752;-73
2023/09/23 21:29:54;;;;;;;7.90;5.00;;;;;;;14.30;100.00;100984.92;4998097;57;1140727;-74
2023/09/23 21:35:00;;;;;;;4.87;4.10;;;;;;;14.31;100.00;100981.77;4995534;58;1140884;-77
2023/09/23 21:40:07;;;;;;;8.53;5.43;;;;;;;14.28;100.00;100984.20;5016091;57;1150556;-76
2023/09/23 21:45:12;;;;;;;12.15;6.53;;;;;;;14.21;100.00;100983.52;4996240;56;1140769;-76
2023/09/23 21:50:18;;;;;;;9.53;4.70;;;;;;;14.17;100.00;100994.08;5066597;56;1142880;-73
2023/09/23 21:55:24;;;;;;;7.65;5.03;;;;;;;14.12;100.00;100994.95;4987587;57;1141059;-71
2023/09/23 22:00:30;;;;;;;9.63;4.03;;;;;;;14.09;100.00;100998.70;5089862;56;1140834;-71
2023/09/23 22:05:35;;;;;;;3.33;3.03;;;;;;;14.08;100.00;101008.98;5078986;56;1140845;-71
2023/09/23 22:10:43;;;;;;;4.00;2.87;;;;;;;14.04;100.00;101023.55;5078324;56;1140847;-75
2023/09/23 22:15:49;;;;;;;4.00;3.13;;;;;;;13.98;100.00;101029.36;5097176;56;1140982;-75
2023/09/23 22:20:57;;;;;;;13.93;3.40;;;;;;;13.84;100.00;101039.82;5078486;56;1140731;-75
2023/09/23 22:26:03;;;;;;;10.28;6.90;;;;;;;13.62;100.00;101048.70;5094570;56;1143031;-76
2023/09/23 22:31:09;;;;;;;4.28;3.47;;;;;;;13.50;100.00;101046.21;5110856;56;1142780;-74
2023/09/23 22:36:15;;;;;;;6.07;3.20;;;;;;;13.37;100.00;101057.00;4995837;57;1140956;-74
2023/09/23 22:41:20;;;;;;;3.43;3.13;;;;;;;13.32;100.00;101064.00;5015740;57;1140927;-69
2023/09/23 22:46:27;;;;;;;2.80;2.60;;;;;;;13.34;100.00;101068.70;4913205;58;1141049;-74
2023/09/23 22:51:33;;;;;;;52.60;26.40;;;;;;;13.31;100.00;101076.08;5079031;56;1140626;-77
2023/09/23 22:56:38;;;;;;;52.27;27.37;;;;;;;13.13;100.00;101073.06;4995581;55;1144956;-78
2023/09/23 23:01:45;;;;;;;35.73;14.80;;;;;;;13.00;100.00;101077.63;5027667;56;1145070;-71